You are not logged in, Click here to log in
ICAO: RCTP Country: 桃園市大園區航站南路9號
Latitude: 25.0797 Longitude: 121.234
Total Arrivals: 1427 Total Departures: 1473
Latest Arrival: HU798G (ZGGG-RCTP)Jason. Li Latest Departure: CI701 (RCTP-RPLL)Jackie. Kung
Scenery: http://www.taoyuan-airport.com/UserFiles/Image/e2map2.gif
METAR : RCTP 270430Z 23018KT 9999 FEW015 SCT060 BKN160 32/27 Q1002 WS R23R NOSIG RMK A2960

臺灣桃園國際機場TPE